Time;durP1;ratioP1;P1;durP2;ratioP2;P2;SDS_P1;SDS_P2;PMS_P1;PMS_P2;Temp;Humidity;BMP_temperature;BMP_pressure;BME280_temperature;BME280_humidity;BME280_pressure;Samples;Min_cycle;Max_cycle;Signal;HPM_P1;HPM_P2
2022/04/05 00:02:21;;;;;;;;;16.00;15.25;;;;;10.22;43.61;100931.06;4963553;28;45350;-47
2022/04/05 00:04:47;;;;;;;;;14.50;14.25;;;;;10.19;43.92;100928.47;4963559;28;45256;-46
2022/04/05 00:07:12;;;;;;;;;18.00;17.00;;;;;10.21;44.08;100938.06;4963851;28;45447;-47
2022/04/05 00:09:38;;;;;;;;;20.00;15.00;;;;;10.22;44.22;100939.78;4945896;28;45423;-46
2022/04/05 00:12:04;;;;;;;;;16.75;14.00;;;;;10.21;44.12;100940.72;4961671;28;46793;-52
2022/04/05 00:14:29;;;;;;;;;11.25;10.00;;;;;10.23;44.11;100941.53;4963288;28;45664;-47
2022/04/05 00:16:55;;;;;;;;;17.50;14.25;;;;;10.23;44.12;100935.44;4963723;28;45465;-46
2022/04/05 00:19:21;;;;;;;;;15.50;14.25;;;;;10.21;44.58;100931.94;4963252;28;45309;-46
2022/04/05 00:21:48;;;;;;;;;12.25;12.25;;;;;10.25;44.21;100946.78;4963374;28;46943;-45
2022/04/05 00:24:14;;;;;;;;;16.75;14.00;;;;;10.24;44.49;100937.19;4961632;28;45444;-47
2022/04/05 00:26:39;;;;;;;;;14.50;14.50;;;;;10.22;44.32;100923.19;4963202;28;45311;-47
2022/04/05 00:29:04;;;;;;;;;17.00;14.75;;;;;10.25;44.58;100924.03;4963023;28;45451;-46
2022/04/05 00:31:30;;;;;;;;;14.25;14.25;;;;;10.26;44.47;100924.88;4962312;28;45700;-48
2022/04/05 00:33:55;;;;;;;;;13.00;13.00;;;;;10.28;44.71;100923.13;4963097;28;45291;-46
2022/04/05 00:36:21;;;;;;;;;7.00;5.75;;;;;10.28;44.79;100932.78;4963526;28;45348;-48
2022/04/05 00:38:46;;;;;;;;;16.50;16.00;;;;;10.26;45.18;100922.25;4961724;28;45269;-46
2022/04/05 00:41:11;;;;;;;;;12.25;12.25;;;;;10.32;44.69;100930.06;4963084;28;46176;-46
2022/04/05 00:43:37;;;;;;;;;13.25;13.25;;;;;10.32;44.81;100939.72;4962661;28;45212;-46
2022/04/05 00:46:02;;;;;;;;;16.00;13.75;;;;;10.32;44.77;100935.31;4963383;28;45248;-50
2022/04/05 00:48:42;;;;;;;;;18.00;15.25;;;;;10.31;45.05;100928.31;4962942;28;45236;-46
2022/04/05 00:51:07;;;;;;;;;14.25;11.50;;;;;10.32;45.11;100934.47;4961746;28;46436;-47
2022/04/05 00:53:35;;;;;;;;;13.75;12.00;;;;;10.32;45.17;100926.59;4961414;28;45460;-47
2022/04/05 00:56:03;;;;;;;;;12.75;12.75;;;;;10.30;45.42;100926.63;4962935;28;45231;-49
2022/04/05 00:58:30;;;;;;;;;13.00;13.00;;;;;10.31;45.17;100922.22;4961231;28;45435;-47
2022/04/05 01:00:57;;;;;;;;;13.00;13.00;;;;;10.32;45.22;100926.59;4945613;28;47482;-49
2022/04/05 01:03:24;;;;;;;;;13.00;13.00;;;;;10.32;45.29;100916.09;4962432;28;45515;-47
2022/04/05 01:05:52;;;;;;;;;13.25;13.00;;;;;10.30;45.32;100936.22;4962687;28;45259;-50
2022/04/05 01:08:19;;;;;;;;;14.00;12.50;;;;;10.29;45.61;100918.72;4961284;28;45878;-46
2022/04/05 01:10:46;;;;;;;;;20.75;18.25;;;;;10.30;45.85;100920.47;4962236;28;46098;-48
2022/04/05 01:13:11;;;;;;;;;15.50;14.00;;;;;10.30;45.70;100921.34;4961911;28;45350;-46
2022/04/05 01:15:37;;;;;;;;;13.75;13.50;;;;;10.31;45.76;100920.44;4962577;28;45333;-45
2022/04/05 01:18:03;;;;;;;;;15.75;14.50;;;;;10.31;45.67;100917.81;4962570;28;45632;-48
2022/04/05 01:20:29;;;;;;;;;17.25;14.00;;;;;10.31;45.75;100915.19;4962645;28;45377;-46
2022/04/05 01:22:54;;;;;;;;;18.25;15.50;;;;;10.31;45.96;100923.06;4962142;28;45288;-51
2022/04/05 01:25:20;;;;;;;;;20.25;19.00;;;;;10.29;45.86;100918.72;4962447;28;45310;-51
2022/04/05 01:27:46;;;;;;;;;14.00;14.00;;;;;10.29;46.26;100908.22;4962011;28;45236;-50
2022/04/05 01:30:13;;;;;;;;;14.75;11.75;;;;;10.30;46.11;100902.97;4962458;28;45262;-46
2022/04/05 01:32:38;;;;;;;;;12.25;12.25;;;;;10.33;45.77;100904.69;4962001;28;45267;-45
2022/04/05 01:35:05;;;;;;;;;14.50;14.50;;;;;10.33;46.15;100910.81;4962342;28;45405;-46
2022/04/05 01:37:32;;;;;;;;;13.75;13.25;;;;;10.33;46.33;100909.94;4962206;28;45275;-48
2022/04/05 01:39:58;;;;;;;;;11.75;10.75;;;;;10.31;46.08;100899.44;4961939;28;47009;-47
2022/04/05 01:42:23;;;;;;;;;13.00;13.00;;;;;10.33;46.29;100899.44;4961435;28;45317;-50
2022/04/05 01:44:49;;;;;;;;;15.25;12.75;;;;;10.30;46.27;100892.47;4961166;28;45830;-48
2022/04/05 01:47:16;;;;;;;;;13.25;13.25;;;;;10.32;46.44;100892.44;4962073;28;45251;-46
2022/04/05 01:49:44;;;;;;;;;14.00;12.50;;;;;10.28;46.18;100888.97;4962064;28;46187;-45
2022/04/05 01:52:10;;;;;;;;;12.00;10.75;;;;;10.32;46.54;100890.66;4961823;28;45460;-47
2022/04/05 01:54:37;;;;;;;;;11.75;11.25;;;;;10.33;46.21;100902.06;4962009;28;45326;-49
2022/04/05 01:57:03;;;;;;;;;18.00;14.75;;;;;10.33;45.96;100894.19;4961692;28;45580;-45
2022/04/05 01:59:30;;;;;;;;;13.50;12.25;;;;;10.31;46.64;100896.81;4961834;28;46340;-47
2022/04/05 02:01:56;;;;;;;;;13.50;12.25;;;;;10.30;46.48;100886.31;4961718;28;45164;-48
2022/04/05 02:04:22;;;;;;;;;13.75;10.75;;;;;10.31;46.57;100890.69;4961886;28;45197;-47
2022/04/05 02:06:47;;;;;;;;;11.50;9.75;;;;;10.27;46.62;100887.22;4961827;28;45608;-47
2022/04/05 02:09:14;;;;;;;;;12.75;12.00;;;;;10.29;46.62;100877.59;4961736;28;45238;-48
2022/04/05 02:11:44;;;;;;;;;16.25;13.00;;;;;10.27;46.97;100887.22;4961441;28;45338;-48
2022/04/05 02:14:13;;;;;;;;;17.00;14.75;;;;;10.29;46.75;100884.56;4960102;28;45255;-46
2022/04/05 02:16:39;;;;;;;;;14.50;13.75;;;;;10.26;46.71;100880.22;4961718;28;45700;-47
2022/04/05 02:19:04;;;;;;;;;16.50;14.25;;;;;10.28;46.85;100880.25;4961389;28;45921;-46
2022/04/05 02:21:30;;;;;;;;;12.00;11.75;;;;;10.26;47.18;100880.22;4961540;28;45350;-46
2022/04/05 02:23:55;;;;;;;;;6.00;6.00;;;;;10.25;46.98;100883.72;4960250;28;45383;-46
2022/04/05 02:26:21;;;;;;;;;11.00;11.00;;;;;10.25;46.83;100881.09;4961361;28;45398;-46
2022/04/05 02:28:48;;;;;;;;;12.25;12.00;;;;;10.24;47.28;100882.03;4961112;28;46051;-47
2022/04/05 02:31:16;;;;;;;;;16.25;13.25;;;;;10.21;47.25;100876.78;4961371;28;45501;-51
2022/04/05 02:33:41;;;;;;;;;16.75;13.00;;;;;10.24;47.32;100880.25;4959911;28;45381;-46
2022/04/05 02:36:07;;;;;;;;;15.25;14.00;;;;;10.22;47.38;100881.16;4961341;28;45235;-48
2022/04/05 02:38:33;;;;;;;;;17.50;13.00;;;;;10.21;47.48;100884.66;4961244;28;45382;-46
2022/04/05 02:40:59;;;;;;;;;13.25;12.00;;;;;10.17;47.65;100872.47;4961275;28;45423;-46
2022/04/05 02:43:25;;;;;;;;;13.75;13.00;;;;;10.16;47.45;100876.84;4960866;28;45379;-46
2022/04/05 02:45:50;;;;;;;;;15.00;13.00;;;;;10.16;47.48;100876.84;4961401;28;45381;-45
2022/04/05 02:48:16;;;;;;;;;16.25;14.75;;;;;10.12;47.72;100869.00;4961107;28;45501;-44
2022/04/05 02:50:42;;;;;;;;;14.50;13.50;;;;;10.15;47.77;100868.97;4961239;28;45267;-45
2022/04/05 02:53:07;;;;;;;;;10.00;10.00;;;;;10.16;47.84;100870.72;4960653;28;45280;-48
2022/04/05 02:55:33;;;;;;;;;15.25;13.75;;;;;10.15;47.59;100868.97;4960988;28;45457;-46
2022/04/05 02:57:58;;;;;;;;;14.00;14.00;;;;;10.14;47.75;100864.59;4959342;28;46017;-48
2022/04/05 03:00:24;;;;;;;;;16.75;16.75;;;;;10.15;47.72;100867.22;4961191;28;45311;-45
2022/04/05 03:02:49;;;;;;;;;18.75;14.25;;;;;10.18;48.21;100868.94;4960965;28;45339;-47
2022/04/05 03:05:14;;;;;;;;;13.00;13.00;;;;;10.18;47.92;100858.44;4961204;28;45251;-48
2022/04/05 03:07:43;;;;;;;;;13.50;12.00;;;;;10.19;47.70;100865.44;4960746;28;46005;-47
2022/04/05 03:10:10;;;;;;;;;12.00;12.00;;;;;10.17;48.35;100852.31;4960926;28;45235;-45
2022/04/05 03:12:37;;;;;;;;;14.25;13.25;;;;;10.16;48.18;100858.47;4960330;28;45301;-49
2022/04/05 03:15:04;;;;;;;;;12.00;10.00;;;;;10.17;48.06;100867.19;4960879;28;45620;-46
2022/04/05 03:17:29;;;;;;;;;16.50;15.75;;;;;10.17;48.28;100860.19;4960470;28;45462;-51
2022/04/05 03:19:55;;;;;;;;;14.25;14.00;;;;;10.18;48.15;100863.69;4959438;28;45188;-50
2022/04/05 03:22:20;;;;;;;;;14.50;14.50;;;;;10.16;48.64;100849.69;4960635;28;45239;-50
2022/04/05 03:24:46;;;;;;;;;12.00;10.75;;;;;10.15;48.35;100853.22;4960713;28;45160;-49
2022/04/05 03:27:11;;;;;;;;;17.50;16.00;;;;;10.16;48.46;100849.69;4960028;28;46047;-49
2022/04/05 03:29:36;;;;;;;;;12.25;12.25;;;;;10.15;48.50;100851.47;4960946;28;45227;-49
2022/04/05 03:32:02;;;;;;;;;12.25;12.25;;;;;10.15;48.76;100842.69;4959197;28;45176;-50
2022/04/05 03:34:28;;;;;;;;;16.25;14.00;;;;;10.14;48.94;100854.09;4960746;28;45143;-46
2022/04/05 03:36:54;;;;;;;;;16.00;13.25;;;;;10.13;48.61;100845.34;4959289;28;48289;-49
2022/04/05 03:39:20;;;;;;;;;10.50;10.50;;;;;10.15;48.72;100847.97;4960485;28;45446;-47
2022/04/05 03:41:45;;;;;;;;;12.25;12.00;;;;;10.13;48.92;100855.84;4960194;28;45599;-48
2022/04/05 03:44:11;;;;;;;;;14.50;12.00;;;;;10.12;48.94;100848.84;4960606;28;45251;-45
2022/04/05 03:46:36;;;;;;;;;19.25;16.50;;;;;10.11;48.88;100843.63;4960276;28;46273;-45
2022/04/05 03:49:03;;;;;;;;;17.50;14.50;;;;;10.07;49.03;100835.81;4960839;28;45449;-46
2022/04/05 03:51:28;;;;;;;;;16.00;14.00;;;;;10.08;48.81;100834.88;4960398;28;45438;-50
2022/04/05 03:53:54;;;;;;;;;11.00;10.25;;;;;10.05;49.22;100837.56;4960367;28;45295;-47
2022/04/05 03:56:21;;;;;;;;;15.50;15.25;;;;;10.05;49.44;100834.03;4958990;28;47334;-46
2022/04/05 03:58:47;;;;;;;;;15.25;13.50;;;;;10.05;49.49;100829.69;4960025;28;45410;-47
2022/04/05 04:01:12;;;;;;;;;18.25;17.50;;;;;10.05;49.30;100820.91;4960330;28;45262;-50
2022/04/05 04:03:38;;;;;;;;;15.50;14.50;;;;;10.04;49.27;100833.19;4960300;28;45302;-45
2022/04/05 04:06:04;;;;;;;;;16.00;14.75;;;;;10.01;49.54;100833.25;4962530;28;45287;-45
2022/04/05 04:08:29;;;;;;;;;12.50;12.25;;;;;10.01;49.54;100827.09;4963892;28;45530;-46
2022/04/05 04:10:55;;;;;;;;;20.25;18.75;;;;;10.00;49.84;100830.59;4963474;28;45488;-46
2022/04/05 04:13:20;;;;;;;;;18.50;15.75;;;;;9.98;49.86;100829.78;4961882;28;45300;-47
2022/04/05 04:15:45;;;;;;;;;22.00;21.00;;;;;9.93;49.64;100820.16;4963329;28;45462;-46
2022/04/05 04:18:11;;;;;;;;;15.50;14.75;;;;;9.95;50.06;100821.91;4963725;28;46150;-49
2022/04/05 04:20:42;;;;;;;;;17.00;17.00;;;;;9.94;50.04;100823.69;4963446;28;45474;-45
2022/04/05 04:23:08;;;;;;;;;15.00;15.00;;;;;9.95;49.75;100817.53;4963692;28;45338;-47
2022/04/05 04:25:34;;;;;;;;;15.50;14.00;;;;;9.93;50.17;100816.69;4963017;28;46483;-45
2022/04/05 04:28:00;;;;;;;;;9.25;8.75;;;;;9.90;49.74;100828.09;4962911;28;45360;-49
2022/04/05 04:30:25;;;;;;;;;13.50;13.50;;;;;9.91;50.33;100823.69;4962028;28;45645;-50
2022/04/05 04:32:50;;;;;;;;;17.00;15.75;;;;;9.87;50.56;100819.38;4963297;28;45317;-45
2022/04/05 04:35:16;;;;;;;;;17.50;17.50;;;;;9.88;50.39;100831.63;4963026;28;47125;-47
2022/04/05 04:37:41;;;;;;;;;17.75;14.25;;;;;9.86;50.44;100815.88;4961843;28;45330;-44
2022/04/05 04:40:07;;;;;;;;;18.75;16.75;;;;;9.86;50.96;100829.00;4962990;28;45432;-46
2022/04/05 04:42:33;;;;;;;;;20.00;20.00;;;;;9.87;50.85;100827.25;4962979;28;45315;-49
2022/04/05 04:44:59;;;;;;;;;22.00;20.25;;;;;9.85;50.79;100816.75;4962795;28;46084;-47
2022/04/05 04:47:25;;;;;;;;;16.00;15.50;;;;;9.87;50.80;100827.25;4963257;28;45224;-46
2022/04/05 04:49:50;;;;;;;;;21.25;19.00;;;;;9.87;50.98;100822.88;4961656;28;45450;-49
2022/04/05 04:52:16;;;;;;;;;19.00;17.00;;;;;9.87;51.37;100819.38;4963048;28;45486;-47
2022/04/05 04:54:42;;;;;;;;;18.50;16.75;;;;;9.88;51.17;100821.09;4961481;28;45258;-46
2022/04/05 04:57:07;;;;;;;;;16.75;16.75;;;;;9.84;51.25;100815.03;4961300;28;45282;-46
2022/04/05 04:59:33;;;;;;;;;23.50;22.75;;;;;9.83;51.40;100812.41;4962593;28;45316;-52
2022/04/05 05:01:58;;;;;;;;;20.00;17.75;;;;;9.86;51.48;100820.25;4962613;28;45483;-47
2022/04/05 05:04:24;;;;;;;;;21.75;21.75;;;;;9.84;51.48;100816.78;4962774;28;46023;-49
2022/04/05 05:06:51;;;;;;;;;18.25;18.00;;;;;9.84;51.29;100817.66;4963146;28;45288;-47
2022/04/05 05:09:17;;;;;;;;;20.50;18.00;;;;;9.87;51.42;100819.38;4963002;28;45272;-45
2022/04/05 05:11:44;;;;;;;;;18.25;17.75;;;;;9.87;51.67;100816.75;4962441;28;45336;-46
2022/04/05 05:14:10;;;;;;;;;18.75;18.00;;;;;9.87;51.68;100820.25;4961014;28;46118;-49
2022/04/05 05:16:35;;;;;;;;;18.50;17.50;;;;;9.86;51.61;100826.38;4961915;28;45251;-45
2022/04/05 05:19:01;;;;;;;;;23.25;21.00;;;;;9.87;51.64;100822.88;4962634;28;45156;-46
2022/04/05 05:21:26;;;;;;;;;15.50;15.50;;;;;9.88;51.90;100827.22;4962465;28;45562;-47
2022/04/05 05:23:51;;;;;;;;;19.25;18.75;;;;;9.88;52.13;100823.72;4962078;28;46315;-46
2022/04/05 05:26:17;;;;;;;;;23.00;22.00;;;;;9.87;51.81;100822.00;4962132;28;45207;-47
2022/04/05 05:28:42;;;;;;;;;22.50;19.50;;;;;9.81;52.01;100809.81;4960845;28;45316;-47
2022/04/05 05:31:08;;;;;;;;;19.75;19.00;;;;;9.84;52.03;100822.91;4961415;28;45418;-49
2022/04/05 05:33:33;;;;;;;;;19.75;18.00;;;;;9.83;52.32;100820.28;4962190;28;45157;-48
2022/04/05 05:35:59;;;;;;;;;19.00;18.00;;;;;9.83;52.05;100817.66;4962372;28;45200;-48
2022/04/05 05:38:25;;;;;;;;;19.00;19.00;;;;;9.82;52.34;100821.16;4963257;28;45438;-47
2022/04/05 05:40:51;;;;;;;;;22.50;22.00;;;;;9.82;52.38;100821.16;4961835;28;45343;-48
2022/04/05 05:43:16;;;;;;;;;21.50;20.00;;;;;9.83;52.34;100817.66;4961541;28;46223;-55
2022/04/05 05:45:41;;;;;;;;;17.75;17.75;;;;;9.80;52.42;100817.69;4972583;28;45413;-47
2022/04/05 05:48:08;;;;;;;;;17.50;17.00;;;;;9.82;52.39;100815.91;4967764;28;45452;-47
2022/04/05 05:50:33;;;;;;;;;16.50;16.50;;;;;9.81;52.51;100815.06;4958412;28;45551;-56
2022/04/05 05:52:59;;;;;;;;;18.25;18.25;;;;;9.82;52.61;100829.03;4958873;28;45893;-57
2022/04/05 05:55:25;;;;;;;;;20.25;19.25;;;;;9.81;52.78;100814.19;4960470;28;45264;-58
2022/04/05 05:57:51;;;;;;;;;20.25;18.75;;;;;9.81;52.78;100809.81;4960178;28;45468;-58
2022/04/05 06:00:21;;;;;;;;;19.50;17.50;;;;;9.81;53.02;100811.56;4962079;28;45262;-59
2022/04/05 06:02:50;;;;;;;;;17.50;17.50;;;;;9.83;53.04;100817.66;4960085;28;46344;-59
2022/04/05 06:05:15;;;;;;;;;16.50;15.25;;;;;9.82;52.93;100822.03;4954705;28;46797;-59
2022/04/05 06:07:41;;;;;;;;;19.00;16.25;;;;;9.84;52.84;100827.28;4956425;28;45200;-56
2022/04/05 06:10:09;;;;;;;;;16.25;16.25;;;;;9.85;53.01;100829.00;4958486;28;45331;-55
2022/04/05 06:12:40;;;;;;;;;13.75;13.75;;;;;9.84;53.04;100830.75;4959438;28;46999;-60
2022/04/05 06:15:10;;;;;;;;;20.25;18.50;;;;;9.86;53.02;100820.25;4960904;28;45398;-63
2022/04/05 06:17:41;;;;;;;;;18.50;18.00;;;;;9.84;53.11;100828.13;4961289;28;45442;-61
2022/04/05 06:20:08;;;;;;;;;18.25;13.25;;;;;9.87;53.46;100830.75;4959781;28;45500;-61
2022/04/05 06:23:01;;;;;;;;;19.00;17.75;;;;;9.87;52.95;100825.50;4958761;28;46301;-59
2022/04/05 06:25:29;;;;;;;;;22.25;20.00;;;;;9.88;53.14;100839.50;4958652;28;45470;-60
2022/04/05 06:28:01;;;;;;;;;21.75;20.25;;;;;9.83;53.33;100836.03;4960773;28;45387;-63
2022/04/05 06:30:27;;;;;;;;;25.75;21.25;;;;;9.85;53.34;100835.13;4961335;28;45326;-59
2022/04/05 06:33:10;;;;;;;;;16.75;16.75;;;;;9.85;53.50;100845.63;4960196;28;46884;-60
2022/04/05 06:35:37;;;;;;;;;15.75;15.25;;;;;9.86;53.43;100842.13;4960900;28;45244;-59
2022/04/05 06:38:03;;;;;;;;;22.00;20.75;;;;;9.88;53.02;100852.59;4961061;28;45323;-58
2022/04/05 06:40:29;;;;;;;;;19.00;19.00;;;;;9.83;53.48;100852.66;4960923;28;45268;-60
2022/04/05 06:42:54;;;;;;;;;21.75;20.00;;;;;9.85;53.60;100861.38;4960842;28;46126;-59
2022/04/05 06:45:22;;;;;;;;;20.25;20.25;;;;;9.85;53.59;100850.88;4967526;28;45314;-59
2022/04/05 06:47:47;;;;;;;;;21.50;20.50;;;;;9.84;53.94;100853.53;4961280;28;45337;-59
2022/04/05 06:50:14;;;;;;;;;21.75;20.75;;;;;9.84;53.72;100851.75;4961042;28;45486;-58
2022/04/05 06:52:41;;;;;;;;;23.00;20.75;;;;;9.84;53.97;100853.53;4961039;28;46066;-58
2022/04/05 06:55:09;;;;;;;;;20.00;19.00;;;;;9.85;54.08;100856.13;4960854;28;45408;-58
2022/04/05 06:57:35;;;;;;;;;18.75;18.75;;;;;9.87;54.14;100859.63;4961034;28;45224;-58
2022/04/05 07:00:01;;;;;;;;;21.00;20.50;;;;;9.87;54.06;100859.63;4959641;28;45600;-58
2022/04/05 07:02:26;;;;;;;;;20.00;18.75;;;;;9.89;53.82;100857.84;4971458;28;45497;-58
2022/04/05 07:04:51;;;;;;;;;19.50;18.25;;;;;9.82;54.01;100837.78;4969797;28;45334;-58
2022/04/05 07:07:17;;;;;;;;;23.25;23.00;;;;;9.90;54.10;100845.59;4961218;28;45311;-58
2022/04/05 07:09:43;;;;;;;;;13.25;13.25;;;;;9.96;54.00;100852.53;4966287;28;45327;-56
2022/04/05 07:12:08;;;;;;;;;22.50;20.00;;;;;9.93;54.38;100849.03;4964892;28;46035;-58
2022/04/05 07:14:34;;;;;;;;;22.75;22.50;;;;;9.97;54.21;100844.63;4960715;28;45445;-62
2022/04/05 07:16:59;;;;;;;;;19.75;19.75;;;;;9.99;54.10;100845.50;4965668;28;45461;-58
2022/04/05 07:19:25;;;;;;;;;19.75;17.75;;;;;9.98;54.59;100843.75;4960626;28;45267;-59
2022/04/05 07:21:51;;;;;;;;;18.25;16.50;;;;;10.02;54.48;100848.06;4943192;28;46985;-60
2022/04/05 07:24:16;;;;;;;;;19.50;19.50;;;;;10.04;54.49;100848.94;4960579;28;45172;-59
2022/04/05 07:26:42;;;;;;;;;19.00;18.25;;;;;10.05;54.19;100845.44;4960586;28;45255;-60
2022/04/05 07:29:07;;;;;;;;;19.25;17.75;;;;;10.05;54.42;100842.81;4960731;28;45625;-58
2022/04/05 07:31:32;;;;;;;;;14.75;13.50;;;;;10.07;54.65;100850.66;4959420;28;47535;-59
2022/04/05 07:33:58;;;;;;;;;20.75;18.50;;;;;10.09;54.36;100843.66;4960766;28;45328;-59
2022/04/05 07:36:23;;;;;;;;;17.25;14.25;;;;;10.11;54.61;100839.25;4958657;28;45375;-59
2022/04/05 07:38:48;;;;;;;;;19.50;16.75;;;;;10.10;54.68;100829.66;4961694;28;45279;-60
2022/04/05 07:41:14;;;;;;;;;22.75;21.00;;;;;10.11;54.65;100836.63;4963070;28;45234;-59
2022/04/05 07:43:39;;;;;;;;;23.75;19.75;;;;;10.12;55.07;100840.13;4963057;28;45275;-59
2022/04/05 07:46:05;;;;;;;;;18.75;18.50;;;;;10.16;54.62;100849.69;4963319;28;45692;-59
2022/04/05 07:48:30;;;;;;;;;21.00;19.00;;;;;10.19;54.88;100844.44;4960397;28;45408;-58
2022/04/05 07:50:57;;;;;;;;;23.50;21.75;;;;;10.19;54.45;100840.03;4957687;28;46876;-58
2022/04/05 07:53:22;;;;;;;;;19.00;19.00;;;;;10.19;54.84;100852.31;4963847;28;45343;-58
2022/04/05 07:55:48;;;;;;;;;20.00;17.25;;;;;10.20;54.97;100856.66;4963328;28;45366;-58
2022/04/05 07:58:13;;;;;;;;;19.75;19.00;;;;;10.21;54.63;100854.03;4962569;28;45549;-58
2022/04/05 08:00:39;;;;;;;;;19.00;15.75;;;;;10.16;54.90;100842.72;4963417;28;45319;-58
2022/04/05 08:03:05;;;;;;;;;20.50;20.50;;;;;10.23;55.11;100856.63;4961682;28;45446;-59
2022/04/05 08:05:30;;;;;;;;;17.75;17.75;;;;;10.23;55.31;100849.63;4962083;28;45337;-59
2022/04/05 08:07:56;;;;;;;;;25.50;21.00;;;;;10.27;55.17;100853.09;4952625;28;45456;-59
2022/04/05 08:10:22;;;;;;;;;23.50;20.75;;;;;10.28;55.05;100844.31;4963143;28;46178;-59
2022/04/05 08:12:49;;;;;;;;;20.75;19.50;;;;;10.31;55.10;100846.91;4962880;28;45360;-59
2022/04/05 08:15:18;;;;;;;;;24.50;22.00;;;;;10.33;55.33;100853.00;4963314;28;45342;-60
2022/04/05 08:17:44;;;;;;;;;21.50;20.25;;;;;10.35;55.16;100840.75;4963191;28;45322;-59
2022/04/05 08:20:10;;;;;;;;;19.25;18.00;;;;;10.39;55.10;100847.72;4963044;28;46216;-69
2022/04/05 08:22:36;;;;;;;;;19.50;18.50;;;;;10.43;55.18;100856.44;4961837;28;45296;-59
2022/04/05 08:25:02;;;;;;;;;25.00;23.50;;;;;10.42;54.76;100845.97;4963068;28;45468;-62
2022/04/05 08:27:28;;;;;;;;;19.25;19.25;;;;;10.45;55.45;100851.16;4962845;28;45538;-59
2022/04/05 08:29:53;;;;;;;;;16.25;15.75;;;;;10.50;55.34;100860.75;4963314;28;46216;-59
2022/04/05 08:32:19;;;;;;;;;20.25;20.25;;;;;10.47;55.49;100854.66;4962803;28;45220;-61
2022/04/05 08:34:45;;;;;;;;;21.25;20.25;;;;;10.54;55.43;100866.81;4963357;28;45302;-59
2022/04/05 08:37:12;;;;;;;;;23.75;23.00;;;;;10.55;55.47;100858.03;4962957;28;45270;-59
2022/04/05 08:39:39;;;;;;;;;21.25;21.25;;;;;10.57;55.54;100865.00;4962982;28;46051;-59
2022/04/05 08:42:06;;;;;;;;;24.50;23.50;;;;;10.61;55.82;100863.22;4961137;28;45312;-59
2022/04/05 08:44:31;;;;;;;;;19.75;19.25;;;;;10.65;55.94;100857.03;4962998;28;45235;-59
2022/04/05 08:46:59;;;;;;;;;22.50;20.75;;;;;10.69;55.65;100856.13;4961349;28;45517;-58
2022/04/05 08:49:27;;;;;;;;;18.75;18.25;;;;;10.72;55.60;100842.94;4962529;28;45589;-59
2022/04/05 08:51:53;;;;;;;;;19.50;16.25;;;;;10.77;55.49;100858.66;4973365;28;45372;-59
2022/04/05 08:54:18;;;;;;;;;25.00;23.00;;;;;10.77;55.92;100855.13;4974700;28;45278;-59
2022/04/05 08:56:44;;;;;;;;;21.25;21.25;;;;;10.79;55.71;100861.25;4969063;28;45516;-59
2022/04/05 08:59:09;;;;;;;;;20.50;19.25;;;;;10.81;55.70;100854.22;4967758;28;46992;-59
2022/04/05 09:01:35;;;;;;;;;23.75;22.50;;;;;10.85;55.57;100853.28;4970561;28;45188;-59
2022/04/05 09:04:00;;;;;;;;;21.25;19.75;;;;;10.82;56.05;100853.34;4967562;28;45236;-59
2022/04/05 09:06:28;;;;;;;;;28.25;26.50;;;;;10.84;55.82;100849.81;4962859;28;45518;-59
2022/04/05 09:09:11;;;;;;;;;23.75;23.75;;;;;10.87;56.00;100854.16;4962390;28;45377;-59
2022/04/05 09:11:43;;;;;;;;;22.75;20.00;;;;;10.91;55.87;100847.94;4962451;28;45327;-59
2022/04/05 09:14:09;;;;;;;;;22.75;18.50;;;;;10.90;55.80;100846.19;4962266;28;45335;-59
2022/04/05 09:16:35;;;;;;;;;16.00;16.00;;;;;10.93;56.11;100851.44;4962715;28;45450;-59
2022/04/05 09:19:11;;;;;;;;;14.75;14.75;;;;;10.94;55.86;100844.41;4962269;28;47354;-59
2022/04/05 09:21:53;;;;;;;;;20.50;18.75;;;;;10.99;56.10;100853.97;4962445;28;45499;-59
2022/04/05 09:24:19;;;;;;;;;24.50;22.75;;;;;11.00;56.14;100847.81;4962349;28;45414;-59
2022/04/05 09:26:45;;;;;;;;;17.00;14.25;;;;;11.05;56.26;100853.88;4960531;28;45414;-59
2022/04/05 09:29:11;;;;;;;;;21.25;17.50;;;;;11.06;56.21;100855.59;4962266;28;46064;-59
2022/04/05 09:31:48;;;;;;;;;22.25;21.00;;;;;11.09;56.06;100846.81;4962380;28;45503;-59
2022/04/05 09:34:17;;;;;;;;;23.00;20.75;;;;;11.05;56.17;100856.50;4962340;28;45236;-59
2022/04/05 09:36:45;;;;;;;;;18.50;17.25;;;;;11.10;56.23;100855.59;4962010;28;45513;-59
2022/04/05 09:39:20;;;;;;;;;17.75;15.75;;;;;11.11;56.41;100857.31;4962239;28;46923;-59
2022/04/05 09:42:05;;;;;;;;;19.25;18.50;;;;;11.12;56.71;100859.03;4961690;28;45394;-59
2022/04/05 09:44:33;;;;;;;;;22.00;20.50;;;;;11.15;56.24;100861.63;4962095;28;45240;-59
2022/04/05 09:47:03;;;;;;;;;24.75;20.50;;;;;11.16;56.51;100861.63;4962149;28;45408;-59
2022/04/05 09:49:35;;;;;;;;;22.75;22.25;;;;;11.21;56.55;100864.19;4961880;28;45416;-59
2022/04/05 09:52:00;;;;;;;;;19.50;17.25;;;;;11.23;56.72;100867.63;4961825;28;45479;-59
2022/04/05 09:54:28;;;;;;;;;24.75;22.00;;;;;11.27;56.50;100864.09;4961914;28;45315;-59
2022/04/05 09:57:07;;;;;;;;;24.25;20.25;;;;;11.31;56.48;100865.78;4961816;28;45366;-59
2022/04/05 09:59:38;;;;;;;;;23.75;19.75;;;;;11.34;56.61;100860.44;4961915;28;46032;-58
2022/04/05 10:02:16;;;;;;;;;20.25;19.50;;;;;11.34;56.35;100855.19;4953225;28;45473;-58
2022/04/05 10:04:58;;;;;;;;;20.75;18.25;;;;;11.45;56.58;100848.91;4954055;28;45512;-59
2022/04/05 10:07:26;;;;;;;;;18.25;16.00;;;;;11.47;56.43;100850.63;4957943;28;45576;-59
2022/04/05 10:09:52;;;;;;;;;25.25;22.25;;;;;11.51;56.39;100856.72;4956363;28;45413;-58
2022/04/05 10:12:18;;;;;;;;;19.25;18.75;;;;;11.50;56.76;100852.34;4961133;28;45443;-59
2022/04/05 10:14:43;;;;;;;;;23.75;20.75;;;;;11.55;56.75;100859.25;4961723;28;45220;-59
2022/04/05 10:17:12;;;;;;;;;19.00;19.00;;;;;11.61;56.42;100858.28;4961237;28;45461;-59
2022/04/05 10:19:41;;;;;;;;;21.00;19.25;;;;;11.64;56.32;100852.97;4960012;28;46375;-60
2022/04/05 10:22:07;;;;;;;;;21.50;19.00;;;;;11.69;56.70;100855.53;4961002;28;45283;-61
2022/04/05 10:24:32;;;;;;;;;11.75;11.00;;;;;11.73;56.68;100853.72;4959745;28;45504;-60
2022/04/05 10:26:57;;;;;;;;;29.00;25.75;;;;;11.78;56.42;100859.78;4959935;28;45536;-61
2022/04/05 10:29:26;;;;;;;;;21.00;19.00;;;;;11.77;56.72;100839.59;4961149;28;46934;-60
2022/04/05 10:32:01;;;;;;;;;21.50;21.25;;;;;11.80;56.61;100843.03;4959028;28;46255;-59
2022/04/05 10:34:53;;;;;;;;;23.00;19.75;;;;;11.83;56.26;100856.16;4959986;28;45434;-59
2022/04/05 10:37:30;;;;;;;;;18.00;17.25;;;;;11.82;56.76;100851.81;4953177;28;45199;-60
2022/04/05 10:39:58;;;;;;;;;21.50;20.25;;;;;11.85;56.35;100851.72;4943387;28;47104;-60
2022/04/05 10:42:44;;;;;;;;;18.00;18.00;;;;;11.86;56.46;100850.84;4961001;28;45421;-60
2022/04/05 10:45:12;;;;;;;;;20.50;16.75;;;;;11.85;56.63;100853.50;4949583;28;45462;-60
2022/04/05 10:48:02;;;;;;;;;21.25;17.25;;;;;11.87;56.71;100852.59;4957794;28;45470;-60
2022/04/05 10:50:28;;;;;;;;;16.25;14.75;;;;;11.90;56.56;100856.03;4960781;28;45330;-60
2022/04/05 10:53:29;;;;;;;;;19.00;19.00;;;;;11.90;56.67;100859.56;4947327;28;45395;-60
2022/04/05 10:56:03;;;;;;;;;16.00;15.00;;;;;11.93;56.39;100846.31;4960661;28;45351;-59
2022/04/05 10:58:52;;;;;;;;;17.75;17.50;;;;;11.95;56.77;100847.19;4960824;28;45228;-59
2022/04/05 11:01:22;;;;;;;;;16.75;16.00;;;;;11.93;56.47;100837.56;4921970;28;45404;-59
2022/04/05 11:04:09;;;;;;;;;18.00;17.00;;;;;12.00;56.30;100844.50;4959406;28;45272;-59
2022/04/05 11:07:03;;;;;;;;;16.00;13.50;;;;;12.00;56.47;100834.81;4960917;28;45533;-59
2022/04/05 11:09:32;;;;;;;;;17.25;15.00;;;;;11.96;56.50;100827.00;4944964;28;45499;-59
2022/04/05 11:12:01;;;;;;;;;18.75;16.50;;;;;11.99;56.45;100824.31;4956494;28;45649;-59
2022/04/05 11:14:38;;;;;;;;;13.00;12.25;;;;;12.03;56.48;100826.00;4959778;28;45322;-59